Time;durP1;ratioP1;P1;durP2;ratioP2;P2;SDS_P1;SDS_P2;PMS_P1;PMS_P2;Temp;Humidity;BMP_temperature;BMP_pressure;BME280_temperature;BME280_humidity;BME280_pressure;Samples;Min_cycle;Max_cycle;Signal;HPM_P1;HPM_P2
2023/07/08 04:00:16;;;;;;;2.60;2.53;;;15.80;99.90;;;;;;6080999;23;20807;31
2023/07/08 04:02:44;;;;;;;3.93;3.63;;;15.90;99.90;;;;;;4947853;29;20594;-70
2023/07/08 04:05:14;;;;;;;2.87;2.70;;;15.90;99.90;;;;;;4953148;29;20471;-70
2023/07/08 04:07:41;;;;;;;3.43;3.13;;;15.90;99.90;;;;;;4951785;28;20524;-70
2023/07/08 04:10:10;;;;;;;2.97;2.87;;;15.90;99.90;;;;;;4953542;29;20456;-69
2023/07/08 04:12:37;;;;;;;5.50;3.53;;;16.00;99.90;;;;;;4933459;29;20497;-69
2023/07/08 04:15:04;;;;;;;2.63;2.53;;;16.00;99.90;;;;;;4933998;29;20807;-69
2023/07/08 04:17:32;;;;;;;2.70;2.60;;;16.10;99.90;;;;;;4933732;29;20473;-70
2023/07/08 04:20:01;;;;;;;3.10;3.00;;;16.10;99.90;;;;;;4935105;29;20470;-72
2023/07/08 04:22:27;;;;;;;4.50;3.70;;;16.20;99.90;;;;;;4934566;29;20477;-73
2023/07/08 04:24:54;;;;;;;3.93;3.73;;;16.20;99.90;;;;;;4934955;29;20953;-73
2023/07/08 04:27:22;;;;;;;3.77;3.57;;;16.30;99.90;;;;;;4934315;29;20465;-72
2023/07/08 04:29:49;;;;;;;2.73;2.63;;;16.60;99.90;;;;;;4934987;29;20465;-72
2023/07/08 04:32:16;;;;;;;3.20;3.03;;;17.30;99.90;;;;;;4934195;29;20570;-73
2023/07/08 04:34:44;;;;;;;4.00;3.47;;;18.00;99.90;;;;;;4935349;29;20470;-72
2023/07/08 04:37:12;;;;;;;3.50;3.30;;;18.80;99.90;;;;;;4934309;29;20472;-72
2023/07/08 04:39:39;;;;;;;5.13;3.10;;;19.40;99.90;;;;;;4934676;29;20769;-72
2023/07/08 04:42:06;;;;;;;2.33;2.23;;;20.00;99.90;;;;;;4934075;29;20483;-71
2023/07/08 04:44:33;;;;;;;2.53;2.53;;;20.50;99.90;;;;;;4934205;29;20471;-72
2023/07/08 04:47:00;;;;;;;1.80;1.80;;;20.90;99.90;;;;;;4934708;29;20825;-72
2023/07/08 04:49:31;;;;;;;2.60;2.40;;;21.40;99.90;;;;;;4934629;29;20480;-72
2023/07/08 04:52:01;;;;;;;2.47;2.37;;;21.50;99.90;;;;;;4934607;29;20498;-73
2023/07/08 04:54:28;;;;;;;2.40;2.40;;;21.90;99.90;;;;;;4934295;29;20463;-72
2023/07/08 04:56:55;;;;;;;2.60;2.60;;;22.30;99.90;;;;;;4933786;29;20469;-73
2023/07/08 04:59:23;;;;;;;1.73;1.73;;;22.70;99.90;;;;;;4934294;29;20470;-72
2023/07/08 05:01:52;;;;;;;1.90;1.90;;;23.00;99.90;;;;;;4934271;29;20577;-74
2023/07/08 05:04:20;;;;;;;2.33;2.33;;;23.40;99.90;;;;;;4934688;29;20651;-72
2023/07/08 05:06:48;;;;;;;2.10;2.10;;;23.60;99.90;;;;;;4937300;29;20524;-72
2023/07/08 05:09:16;;;;;;;2.47;2.47;;;23.90;99.90;;;;;;4938289;29;20491;-71
2023/07/08 05:11:43;;;;;;;2.27;2.27;;;24.10;99.90;;;;;;4941655;29;20971;-72
2023/07/08 05:14:12;;;;;;;2.00;2.00;;;24.50;99.90;;;;;;4940755;29;20511;-72
2023/07/08 05:16:39;;;;;;;2.03;2.03;;;24.70;99.90;;;;;;4934195;29;20468;-72
2023/07/08 05:19:06;;;;;;;2.70;2.60;;;25.00;99.90;;;;;;4934186;29;20465;-71
2023/07/08 05:21:34;;;;;;;2.10;2.10;;;25.00;99.90;;;;;;4933692;29;20490;-72
2023/07/08 05:24:01;;;;;;;2.33;2.33;;;24.80;99.90;;;;;;4933676;29;20548;-72
2023/07/08 05:26:29;;;;;;;2.23;2.00;;;25.20;99.90;;;;;;4933912;29;20661;-72
2023/07/08 05:28:56;;;;;;;2.10;2.00;;;25.40;99.90;;;;;;4934515;29;20580;-71
2023/07/08 05:31:23;;;;;;;1.90;1.90;;;25.70;99.90;;;;;;4933889;29;20482;-72
2023/07/08 05:33:50;;;;;;;1.73;1.73;;;25.90;99.90;;;;;;4934513;29;20862;-72
2023/07/08 05:36:16;;;;;;;2.00;1.90;;;26.40;99.90;;;;;;4933983;29;20894;-71
2023/07/08 05:38:43;;;;;;;1.87;1.87;;;26.10;99.90;;;;;;4934431;29;20476;-72
2023/07/08 05:41:10;;;;;;;2.13;2.13;;;26.50;99.90;;;;;;4933749;29;20485;-71
2023/07/08 05:43:38;;;;;;;3.07;2.37;;;26.60;99.90;;;;;;4933700;29;20458;-70
2023/07/08 05:46:04;;;;;;;1.37;1.33;;;26.90;99.90;;;;;;4933210;29;20488;-70
2023/07/08 05:48:31;;;;;;;2.17;2.07;;;27.00;99.90;;;;;;4933668;29;20473;-71
2023/07/08 05:50:58;;;;;;;1.80;1.60;;;27.10;99.90;;;;;;4932719;29;20492;-71
2023/07/08 05:53:24;;;;;;;1.80;1.80;;;27.20;99.90;;;;;;4933027;29;20500;-72
2023/07/08 05:55:51;;;;;;;1.50;1.50;;;27.10;99.90;;;;;;4933315;29;20472;-72
2023/07/08 05:58:18;;;;;;;2.00;2.00;;;26.80;99.90;;;;;;4933094;29;20480;-72
2023/07/08 06:00:46;;;;;;;1.37;1.37;;;26.00;99.90;;;;;;4932897;29;20533;-71
2023/07/08 06:03:13;;;;;;;1.80;1.80;;;25.60;99.90;;;;;;4933019;29;20469;-72
2023/07/08 06:05:40;;;;;;;2.00;2.00;;;25.60;99.90;;;;;;4932883;29;20469;-71
2023/07/08 06:08:08;;;;;;;1.83;1.83;;;25.90;99.90;;;;;;4932482;29;20469;-71
2023/07/08 06:10:35;;;;;;;2.13;2.03;;;26.30;99.90;;;;;;4933268;29;21048;-71
2023/07/08 06:13:02;;;;;;;1.80;1.80;;;26.90;99.90;;;;;;4936303;29;20493;-71
2023/07/08 06:15:28;;;;;;;1.63;1.63;;;27.30;99.90;;;;;;4936666;29;20469;-71
2023/07/08 06:18:00;;;;;;;1.70;1.70;;;27.70;99.90;;;;;;4936182;29;20476;-72
2023/07/08 06:20:27;;;;;;;1.77;1.67;;;27.90;99.90;;;;;;4936233;29;20476;-71
2023/07/08 06:22:54;;;;;;;2.00;1.90;;;28.20;99.90;;;;;;4935775;29;20470;-72
2023/07/08 06:25:20;;;;;;;1.70;1.70;;;28.00;99.90;;;;;;4936018;29;20469;-71
2023/07/08 06:27:47;;;;;;;1.70;1.70;;;28.10;99.90;;;;;;4935653;29;20488;-72
2023/07/08 06:30:14;;;;;;;1.73;1.73;;;28.40;99.90;;;;;;4936010;29;20473;-70
2023/07/08 06:32:41;;;;;;;1.70;1.70;;;28.60;99.90;;;;;;4935688;29;20605;-70
2023/07/08 06:35:09;;;;;;;1.47;1.47;;;29.00;99.90;;;;;;4935490;29;20962;-70
2023/07/08 06:37:36;;;;;;;1.60;1.60;;;29.00;99.90;;;;;;4935236;29;20466;-70
2023/07/08 06:40:03;;;;;;;2.10;2.10;;;29.10;99.90;;;;;;4935970;29;20554;-70
2023/07/08 06:42:30;;;;;;;1.60;1.60;;;29.20;99.90;;;;;;4935003;29;20751;-70
2023/07/08 06:44:57;;;;;;;1.40;1.40;;;29.30;99.90;;;;;;4935387;29;20465;-70
2023/07/08 06:47:24;;;;;;;1.50;1.50;;;29.50;99.90;;;;;;4935156;29;20572;-70
2023/07/08 06:49:50;;;;;;;1.23;1.23;;;29.80;99.90;;;;;;4935800;29;20472;-70
2023/07/08 06:52:18;;;;;;;1.90;1.80;;;30.10;99.90;;;;;;4935090;29;20489;-70
2023/07/08 06:54:45;;;;;;;1.33;1.33;;;30.30;99.90;;;;;;4935279;29;20493;-70
2023/07/08 06:57:12;;;;;;;1.50;1.50;;;30.50;99.90;;;;;;4934862;29;20470;-70
2023/07/08 06:59:39;;;;;;;1.80;1.80;;;30.80;99.60;;;;;;4935301;29;20478;-69
2023/07/08 07:02:06;;;;;;;1.67;1.60;;;31.10;99.20;;;;;;4934867;29;20869;-70
2023/07/08 07:04:33;;;;;;;1.60;1.60;;;31.00;98.90;;;;;;4935515;29;20461;-70
2023/07/08 07:06:59;;;;;;;1.53;1.53;;;31.00;98.50;;;;;;4934970;29;20469;-70
2023/07/08 07:09:27;;;;;;;1.50;1.50;;;31.30;98.60;;;;;;4935489;29;20465;-70
2023/07/08 07:11:54;;;;;;;1.50;1.50;;;31.20;98.20;;;;;;4935024;29;21009;-69
2023/07/08 07:14:21;;;;;;;1.50;1.50;;;31.00;98.30;;;;;;4934879;29;20486;-69
2023/07/08 07:16:48;;;;;;;1.57;1.57;;;30.80;98.30;;;;;;4935166;29;20470;-70
2023/07/08 07:19:14;;;;;;;1.63;1.63;;;30.30;99.10;;;;;;4935198;29;20501;-70
2023/07/08 07:21:41;;;;;;;2.00;1.90;;;30.60;99.40;;;;;;4934141;29;20593;-70
2023/07/08 07:24:08;;;;;;;1.47;1.47;;;30.90;98.70;;;;;;4934642;29;20947;-70
2023/07/08 07:26:36;;;;;;;1.13;1.13;;;31.10;98.30;;;;;;4934453;29;20672;-70
2023/07/08 07:29:03;;;;;;;1.13;1.13;;;31.10;98.20;;;;;;4934810;29;20911;-70
2023/07/08 07:31:32;;;;;;;1.57;1.57;;;31.50;98.20;;;;;;4934904;29;20573;-70
2023/07/08 07:33:59;;;;;;;1.17;1.17;;;31.60;98.20;;;;;;4934845;29;20877;-70
2023/07/08 07:36:26;;;;;;;1.77;1.77;;;31.80;97.50;;;;;;4934225;29;20476;-70
2023/07/08 07:38:53;;;;;;;1.47;1.47;;;31.80;97.30;;;;;;4934542;29;20954;-70
2023/07/08 07:41:19;;;;;;;1.50;1.50;;;31.40;97.80;;;;;;4934202;29;20504;-70
2023/07/08 07:43:47;;;;;;;1.23;1.23;;;31.50;97.60;;;;;;4934045;29;20465;-70
2023/07/08 07:46:14;;;;;;;1.20;1.20;;;31.70;97.40;;;;;;4934539;29;20791;-69
2023/07/08 07:48:42;;;;;;;1.53;1.53;;;31.60;97.40;;;;;;4934614;29;20469;-70
2023/07/08 07:51:10;;;;;;;1.30;1.30;;;31.70;97.10;;;;;;4933985;29;20496;-70
2023/07/08 07:53:37;;;;;;;1.10;1.10;;;31.60;97.20;;;;;;4934234;29;20628;-70
2023/07/08 07:56:04;;;;;;;1.70;1.70;;;31.30;97.50;;;;;;4933726;29;20465;-70
2023/07/08 07:58:32;;;;;;;1.53;1.53;;;31.50;97.50;;;;;;4934277;29;20977;-69
2023/07/08 08:01:01;;;;;;;1.70;1.70;;;31.50;97.50;;;;;;4934130;29;20512;-69
2023/07/08 08:03:28;;;;;;;1.60;1.53;;;31.70;97.10;;;;;;4934399;29;20677;-69
2023/07/08 08:05:55;;;;;;;1.23;1.23;;;31.80;97.30;;;;;;4933812;29;20476;-68
2023/07/08 08:08:22;;;;;;;1.60;1.60;;;32.00;96.80;;;;;;4933919;29;20469;-69
2023/07/08 08:10:49;;;;;;;1.40;1.40;;;31.90;96.90;;;;;;4933957;29;20549;-70
2023/07/08 08:13:16;;;;;;;1.53;1.53;;;31.80;96.80;;;;;;4933669;29;20525;-68
2023/07/08 08:15:43;;;;;;;1.60;1.60;;;31.80;96.70;;;;;;4933977;29;20473;-68
2023/07/08 08:18:11;;;;;;;1.57;1.57;;;31.80;96.40;;;;;;4933902;29;20466;-69
2023/07/08 08:20:39;;;;;;;1.20;1.20;;;31.70;96.80;;;;;;4933947;29;20497;-69
2023/07/08 08:23:06;;;;;;;1.33;1.33;;;31.60;96.80;;;;;;4933246;29;20544;-69
2023/07/08 08:25:33;;;;;;;1.50;1.50;;;31.10;97.30;;;;;;4933705;29;20469;-69
2023/07/08 08:28:00;;;;;;;1.47;1.47;;;31.30;97.50;;;;;;4933475;29;20485;-70
2023/07/08 08:30:26;;;;;;;1.60;1.60;;;31.60;97.00;;;;;;4933906;29;20653;-69
2023/07/08 08:32:53;;;;;;;1.70;1.70;;;31.30;96.90;;;;;;4933702;29;20474;-69
2023/07/08 08:35:21;;;;;;;1.70;1.70;;;31.00;97.50;;;;;;4933087;29;20465;-69
2023/07/08 08:37:48;;;;;;;1.90;1.90;;;30.30;98.20;;;;;;4932828;29;20836;-68
2023/07/08 08:40:17;;;;;;;1.83;1.83;;;30.60;98.00;;;;;;4933729;29;20472;-68
2023/07/08 08:42:48;;;;;;;1.83;1.83;;;30.80;97.80;;;;;;4933130;29;20470;-68
2023/07/08 08:45:20;;;;;;;1.90;1.90;;;30.90;97.80;;;;;;4933677;29;20553;-70
2023/07/08 08:47:51;;;;;;;1.87;1.87;;;30.50;98.50;;;;;;4934270;29;20465;-70
2023/07/08 08:50:30;;;;;;;1.80;1.70;;;30.70;98.30;;;;;;4933586;29;20480;-70
2023/07/08 08:52:57;;;;;;;1.50;1.50;;;31.00;97.90;;;;;;4933049;29;20476;-70
2023/07/08 08:55:25;;;;;;;1.70;1.70;;;30.90;97.40;;;;;;4933460;29;20508;-70
2023/07/08 08:58:00;;;;;;;1.87;1.87;;;30.80;97.40;;;;;;4933486;29;20469;-69
2023/07/08 09:00:32;;;;;;;1.50;1.50;;;30.90;97.80;;;;;;4935033;29;20559;-70
2023/07/08 09:03:04;;;;;;;1.70;1.70;;;31.00;97.40;;;;;;4944276;29;20481;-70
2023/07/08 09:05:32;;;;;;;1.87;1.87;;;30.90;97.60;;;;;;4945514;29;20938;-70
2023/07/08 09:08:05;;;;;;;2.00;2.00;;;30.60;97.80;;;;;;4938569;29;20468;-70
2023/07/08 09:10:43;;;;;;;1.70;1.70;;;30.40;97.90;;;;;;4933299;29;20485;-69
2023/07/08 09:13:16;;;;;;;2.00;2.00;;;30.00;98.80;;;;;;4932581;29;20473;-69
2023/07/08 09:15:43;;;;;;;2.10;2.10;;;30.00;99.20;;;;;;4933396;29;20469;-69
2023/07/08 09:18:19;;;;;;;1.53;1.53;;;29.90;98.80;;;;;;4933049;29;20472;-69
2023/07/08 09:20:47;;;;;;;1.90;1.90;;;30.10;98.70;;;;;;4933172;29;20481;-69
2023/07/08 09:23:21;;;;;;;1.60;1.60;;;30.00;98.10;;;;;;4932416;29;20963;-70
2023/07/08 09:25:53;;;;;;;2.10;2.00;;;30.00;98.30;;;;;;4932854;29;20493;-70
2023/07/08 09:28:20;;;;;;;2.07;2.07;;;29.90;99.10;;;;;;4932852;29;20536;-69
2023/07/08 09:30:49;;;;;;;2.20;2.20;;;29.70;99.20;;;;;;4932980;29;20485;-69
2023/07/08 09:33:16;;;;;;;2.23;2.17;;;29.90;99.20;;;;;;4932867;29;20492;-70
2023/07/08 09:35:46;;;;;;;2.50;2.40;;;29.90;98.10;;;;;;4932880;29;20466;-69
2023/07/08 09:38:17;;;;;;;2.20;2.10;;;29.80;98.20;;;;;;4932568;29;20461;-69
2023/07/08 09:40:49;;;;;;;2.10;2.00;;;29.50;98.60;;;;;;4932981;29;20585;-70
2023/07/08 09:43:24;;;;;;;2.00;2.00;;;29.60;98.10;;;;;;4932526;29;20842;-70
2023/07/08 09:45:51;;;;;;;2.40;2.30;;;29.60;98.50;;;;;;4934639;29;20464;-70
2023/07/08 09:48:21;;;;;;;2.00;2.00;;;29.30;98.90;;;;;;4936524;29;20465;-70
2023/07/08 09:50:51;;;;;;;1.73;1.73;;;29.20;99.50;;;;;;4936410;29;20493;-70
2023/07/08 09:53:20;;;;;;;2.30;2.30;;;29.30;98.90;;;;;;4936254;29;20473;-70
2023/07/08 09:55:47;;;;;;;1.93;1.93;;;29.30;97.90;;;;;;4936382;29;20472;-70
2023/07/08 09:58:21;;;;;;;2.37;2.27;;;29.20;98.10;;;;;;4935830;29;20572;-70
2023/07/08 10:00:52;;;;;;;2.40;2.40;;;29.00;98.20;;;;;;4936426;29;20499;-69
2023/07/08 10:03:23;;;;;;;2.33;2.33;;;29.20;98.10;;;;;;4936359;29;21122;-70
2023/07/08 10:05:51;;;;;;;2.10;2.00;;;29.10;97.60;;;;;;4936147;29;20466;-70
2023/07/08 10:08:20;;;;;;;2.10;2.10;;;29.10;97.00;;;;;;4935806;29;20555;-69
2023/07/08 10:10:50;;;;;;;2.40;2.40;;;29.10;96.40;;;;;;4936121;29;20486;-69
2023/07/08 10:13:23;;;;;;;2.07;2.07;;;29.00;97.40;;;;;;4935589;29;20846;-70
2023/07/08 10:15:56;;;;;;;2.53;2.43;;;29.20;97.40;;;;;;4935760;29;20498;-70
2023/07/08 10:18:28;;;;;;;2.27;2.13;;;29.20;97.30;;;;;;4936155;29;20467;-70
2023/07/08 10:21:00;;;;;;;2.20;2.20;;;29.20;97.30;;;;;;4935687;29;20503;-70
2023/07/08 10:23:40;;;;;;;1.60;1.60;;;29.10;97.80;;;;;;4992975;23;20490;-70
2023/07/08 10:26:14;;;;;;;1.67;1.67;;;29.20;97.60;;;;;;4995002;28;20841;-70
2023/07/08 10:28:48;;;;;;;2.03;2.00;;;29.20;96.70;;;;;;4996116;28;20511;-71
2023/07/08 10:31:26;;;;;;;2.17;2.17;;;29.40;97.30;;;;;;4995507;28;20969;-70
2023/07/08 10:34:09;;;;;;;2.10;2.10;;;29.40;97.20;;;;;;4995642;28;20488;-72
2023/07/08 10:36:47;;;;;;;2.40;2.40;;;29.40;97.20;;;;;;4995147;28;20984;-70
2023/07/08 10:39:32;;;;;;;1.63;1.63;;;29.40;97.50;;;;;;4994101;28;20542;-70
2023/07/08 10:42:07;;;;;;;1.60;1.60;;;29.40;96.20;;;;;;4994059;28;20503;-70
2023/07/08 10:44:45;;;;;;;1.90;1.90;;;29.40;96.30;;;;;;5001641;28;20460;-70
2023/07/08 10:47:24;;;;;;;1.60;1.60;;;29.50;95.60;;;;;;4993384;28;20642;-69
2023/07/08 10:50:03;;;;;;;1.60;1.60;;;29.60;95.00;;;;;;4994031;28;20778;-69
2023/07/08 10:52:46;;;;;;;2.40;2.30;;;29.60;95.80;;;;;;4993698;28;20555;-69
2023/07/08 10:55:29;;;;;;;2.33;2.23;;;29.60;96.30;;;;;;4993458;28;20579;-69
2023/07/08 10:58:38;;;;;;;2.10;2.00;;;29.40;96.80;;;;;;4992622;28;21192;-72
2023/07/08 11:01:13;;;;;;;1.70;1.70;;;29.60;94.50;;;;;;4986252;28;20505;-71
2023/07/08 11:04:03;;;;;;;2.00;1.93;;;29.70;95.00;;;;;;4993595;28;20470;-71
2023/07/08 11:06:42;;;;;;;2.00;2.00;;;29.70;94.30;;;;;;4992935;28;20493;-70
2023/07/08 11:09:13;;;;;;;2.33;2.23;;;29.70;93.80;;;;;;4993239;28;20543;-71
2023/07/08 11:11:50;;;;;;;1.60;1.60;;;29.80;94.00;;;;;;4993018;28;20470;-70
2023/07/08 11:14:20;;;;;;;1.83;1.83;;;29.90;93.60;;;;;;4993114;28;21032;-70
2023/07/08 11:16:56;;;;;;;2.07;2.07;;;29.90;93.30;;;;;;4992618;28;20544;-71
2023/07/08 11:19:27;;;;;;;1.93;1.93;;;29.90;93.90;;;;;;4993164;28;20484;-71
2023/07/08 11:21:58;;;;;;;1.90;1.90;;;29.90;94.50;;;;;;4992863;28;20467;-70
2023/07/08 11:24:33;;;;;;;3.10;1.87;;;30.10;94.70;;;;;;4992516;28;20513;-71
2023/07/08 11:27:07;;;;;;;1.97;1.90;;;30.20;94.40;;;;;;4993170;28;20566;-71
2023/07/08 11:29:49;;;;;;;1.97;1.97;;;30.20;93.30;;;;;;4992888;28;21091;-70
2023/07/08 11:32:21;;;;;;;2.40;2.30;;;30.10;93.30;;;;;;4992427;28;20463;-70
2023/07/08 11:34:51;;;;;;;2.37;2.33;;;30.00;93.60;;;;;;4992386;28;20519;-71
2023/07/08 11:37:20;;;;;;;1.50;1.50;;;29.90;93.40;;;;;;4992648;28;20482;-71
2023/07/08 11:39:53;;;;;;;2.47;2.37;;;29.90;93.50;;;;;;4993115;28;20502;-71
2023/07/08 11:42:26;;;;;;;2.07;2.07;;;29.90;93.40;;;;;;4992782;28;20545;-71
2023/07/08 11:44:56;;;;;;;1.57;1.57;;;30.20;93.40;;;;;;4998556;28;20543;-71
2023/07/08 11:47:32;;;;;;;1.67;1.63;;;30.20;93.00;;;;;;5012012;28;20584;-71
2023/07/08 11:49:59;;;;;;;1.60;1.60;;;30.20;92.50;;;;;;5012241;28;20500;-70
2023/07/08 11:52:26;;;;;;;2.00;2.00;;;30.30;92.70;;;;;;5012215;28;20546;-71
2023/07/08 11:55:12;;;;;;;2.10;2.00;;;30.40;93.00;;;;;;5011632;28;21059;-70
2023/07/08 11:57:43;;;;;;;2.27;2.20;;;30.40;93.10;;;;;;5012042;28;20514;-70
2023/07/08 12:00:18;;;;;;;1.77;1.77;;;30.40;92.70;;;;;;5012403;28;20462;-70
2023/07/08 12:02:51;;;;;;;1.80;1.73;;;30.50;93.20;;;;;;5011955;28;20808;-70
2023/07/08 12:05:18;;;;;;;1.90;1.90;;;30.60;93.30;;;;;;5011700;28;20472;-71
2023/07/08 12:07:48;;;;;;;2.23;2.23;;;30.50;93.50;;;;;;5011682;28;20580;-70
2023/07/08 12:10:18;;;;;;;1.90;1.90;;;30.60;93.40;;;;;;5011535;28;20470;-70
2023/07/08 12:12:48;;;;;;;1.80;1.77;;;30.60;92.70;;;;;;5011434;28;20493;-70
2023/07/08 12:15:22;;;;;;;2.10;2.10;;;30.70;92.20;;;;;;5011523;28;20513;-71
2023/07/08 12:17:51;;;;;;;2.57;2.47;;;30.70;93.00;;;;;;5012197;28;20511;-70
2023/07/08 12:20:22;;;;;;;1.77;1.77;;;30.90;92.60;;;;;;5011594;28;20556;-71
2023/07/08 12:22:49;;;;;;;2.20;2.10;;;30.90;92.50;;;;;;5011342;28;20506;-71
2023/07/08 12:25:18;;;;;;;2.47;2.37;;;30.80;92.30;;;;;;5011045;28;20470;-69
2023/07/08 12:27:47;;;;;;;1.60;1.60;;;30.80;92.60;;;;;;5011240;28;20482;-70
2023/07/08 12:30:19;;;;;;;2.40;2.30;;;30.80;92.80;;;;;;5011495;28;20554;-69
2023/07/08 12:32:46;;;;;;;2.20;2.20;;;30.80;92.20;;;;;;5011218;28;20489;-71
2023/07/08 12:35:23;;;;;;;1.43;1.43;;;30.90;92.90;;;;;;5011005;28;20561;-71
2023/07/08 12:37:51;;;;;;;2.00;2.00;;;30.90;92.00;;;;;;5011336;28;20485;-72
2023/07/08 12:40:19;;;;;;;2.53;2.20;;;31.00;92.00;;;;;;5011824;28;20958;-70
2023/07/08 12:42:48;;;;;;;1.77;1.77;;;31.10;92.60;;;;;;5010212;28;20465;-70
2023/07/08 12:45:17;;;;;;;1.67;1.67;;;31.10;92.40;;;;;;4993792;28;20498;-69
2023/07/08 12:47:45;;;;;;;2.63;2.53;;;31.10;92.70;;;;;;4990849;28;20570;-71
2023/07/08 12:50:13;;;;;;;1.60;1.60;;;31.20;92.30;;;;;;4991720;28;20501;-71
2023/07/08 12:52:40;;;;;;;1.87;1.87;;;31.30;92.40;;;;;;4991067;28;20852;-71
2023/07/08 12:55:09;;;;;;;2.47;2.37;;;31.10;91.80;;;;;;4991155;28;20490;-71
2023/07/08 12:57:36;;;;;;;1.70;1.70;;;31.10;92.10;;;;;;4990848;28;20570;-71
2023/07/08 13:00:06;;;;;;;1.97;1.97;;;31.10;90.90;;;;;;4991189;28;20880;-72
2023/07/08 13:02:33;;;;;;;1.43;1.40;;;31.20;90.10;;;;;;4992483;28;20463;-71
2023/07/08 13:05:03;;;;;;;1.60;1.60;;;31.20;90.20;;;;;;4991751;28;20503;-70
2023/07/08 13:07:36;;;;;;;1.97;1.80;;;31.30;90.50;;;;;;4991371;28;20483;-71
2023/07/08 13:10:05;;;;;;;1.87;1.87;;;31.30;89.20;;;;;;4991847;28;20469;-70
2023/07/08 13:12:35;;;;;;;1.70;1.67;;;31.30;89.30;;;;;;4991892;28;20458;-70
2023/07/08 13:15:06;;;;;;;1.60;1.60;;;31.30;87.60;;;;;;4992282;28;20930;-72
2023/07/08 13:17:34;;;;;;;1.93;1.83;;;31.40;88.70;;;;;;4991714;28;20777;-70
2023/07/08 13:20:01;;;;;;;1.80;1.80;;;31.20;89.00;;;;;;4992055;28;20832;-71
2023/07/08 13:22:30;;;;;;;2.27;1.90;;;31.30;87.60;;;;;;4995517;28;20546;-70
2023/07/08 13:25:00;;;;;;;2.40;2.20;;;31.30;89.00;;;;;;4995480;28;20518;-71
2023/07/08 13:27:28;;;;;;;2.50;2.30;;;31.30;87.20;;;;;;4995673;28;20511;-70
2023/07/08 13:30:16;;;;;;;1.70;1.70;;;31.30;90.10;;;;;;4995789;28;20463;-70
2023/07/08 13:32:43;;;;;;;2.40;2.27;;;31.30;88.90;;;;;;4995383;28;20563;-70
2023/07/08 13:35:23;;;;;;;1.97;1.87;;;31.40;89.50;;;;;;4995532;28;20558;-71
2023/07/08 13:37:50;;;;;;;2.57;2.47;;;31.60;86.80;;;;;;4994915;28;20509;-70
2023/07/08 13:40:17;;;;;;;2.10;2.00;;;31.60;85.40;;;;;;4995835;28;20903;-72
2023/07/08 13:42:49;;;;;;;1.83;1.73;;;31.50;85.90;;;;;;5000397;28;20597;-69
2023/07/08 13:45:23;;;;;;;2.10;2.10;;;31.50;87.00;;;;;;4996632;28;20485;-70
2023/07/08 13:48:03;;;;;;;1.40;1.40;;;31.40;88.50;;;;;;4995183;28;20537;-70
2023/07/08 13:50:39;;;;;;;1.60;1.60;;;31.60;87.50;;;;;;4995446;28;20501;-71
2023/07/08 13:53:17;;;;;;;1.97;1.90;;;31.60;88.00;;;;;;4994992;28;20462;-71
2023/07/08 13:55:44;;;;;;;1.90;1.80;;;31.60;89.60;;;;;;4995563;28;20518;-72
2023/07/08 13:58:17;;;;;;;2.37;2.30;;;31.70;87.20;;;;;;4994844;28;20479;-71
2023/07/08 14:00:45;;;;;;;1.90;1.90;;;31.70;89.50;;;;;;4994916;28;20562;-69
2023/07/08 14:03:14;;;;;;;1.50;1.50;;;31.60;90.50;;;;;;4994800;28;20916;-70
2023/07/08 14:05:41;;;;;;;2.10;2.10;;;31.60;90.70;;;;;;4994954;28;20912;-70
2023/07/08 14:08:14;;;;;;;2.80;2.70;;;31.60;90.10;;;;;;4995165;28;20581;-71
2023/07/08 14:10:41;;;;;;;1.60;1.50;;;31.50;90.70;;;;;;4995304;28;20462;-71
2023/07/08 14:13:08;;;;;;;2.47;2.27;;;31.60;90.50;;;;;;4994718;28;20458;-70
2023/07/08 14:15:35;;;;;;;2.30;2.20;;;31.50;89.20;;;;;;4994285;28;20593;-70
2023/07/08 14:18:03;;;;;;;1.83;1.83;;;31.40;89.60;;;;;;4994434;28;20574;-71
2023/07/08 14:20:31;;;;;;;1.83;1.83;;;31.50;88.90;;;;;;4994609;28;21042;-71
2023/07/08 14:22:57;;;;;;;1.80;1.80;;;31.60;90.30;;;;;;4994050;28;20545;-71
2023/07/08 14:25:24;;;;;;;2.20;2.10;;;31.60;89.80;;;;;;4994573;28;20486;-71
2023/07/08 14:27:52;;;;;;;2.50;2.40;;;31.70;90.30;;;;;;4994401;28;20514;-71
2023/07/08 14:30:21;;;;;;;1.80;1.80;;;31.80;87.80;;;;;;4994555;28;20506;-71
2023/07/08 14:32:49;;;;;;;1.77;1.73;;;31.90;88.60;;;;;;4993003;28;20490;-71
2023/07/08 14:35:21;;;;;;;2.97;2.83;;;32.20;87.00;;;;;;4993964;28;20490;-71
2023/07/08 14:37:48;;;;;;;1.77;1.77;;;32.20;86.50;;;;;;4994129;28;20479;-71
2023/07/08 14:40:25;;;;;;;2.63;2.63;;;32.10;86.80;;;;;;4994418;28;20463;-71
2023/07/08 14:42:59;;;;;;;2.93;2.53;;;32.10;87.70;;;;;;5000687;28;20472;-71
2023/07/08 14:45:27;;;;;;;1.87;1.80;;;32.00;86.00;;;;;;5013400;28;20604;-70
2023/07/08 14:47:54;;;;;;;2.00;2.00;;;32.00;85.50;;;;;;5013265;28;20528;-70
2023/07/08 14:50:25;;;;;;;2.33;2.23;;;32.10;86.30;;;;;;5014500;28;20883;-70
2023/07/08 14:52:52;;;;;;;2.47;2.43;;;32.30;85.90;;;;;;5014772;28;20779;-70
2023/07/08 14:55:19;;;;;;;1.93;1.90;;;32.40;85.90;;;;;;5013835;28;20605;-70
2023/07/08 14:57:49;;;;;;;1.90;1.90;;;32.40;84.60;;;;;;5013737;28;20556;-70
2023/07/08 15:00:18;;;;;;;2.10;2.10;;;32.50;84.80;;;;;;5013984;28;20490;-69
2023/07/08 15:02:47;;;;;;;1.67;1.67;;;32.50;84.30;;;;;;5013409;28;20855;-70
2023/07/08 15:05:19;;;;;;;2.27;2.27;;;32.70;85.50;;;;;;5013368;28;20466;-70
2023/07/08 15:07:50;;;;;;;2.07;1.97;;;32.70;84.30;;;;;;5013384;28;20486;-70
2023/07/08 15:10:17;;;;;;;2.33;2.33;;;32.70;83.00;;;;;;5013384;28;20469;-70
2023/07/08 15:12:44;;;;;;;2.47;2.40;;;32.70;84.90;;;;;;5013157;28;20458;-69
2023/07/08 15:15:17;;;;;;;2.30;2.30;;;32.70;86.60;;;;;;5012741;28;20509;-71
2023/07/08 15:17:45;;;;;;;2.00;2.00;;;32.60;87.60;;;;;;5012925;28;20528;-70
2023/07/08 15:20:14;;;;;;;1.93;1.90;;;32.70;85.10;;;;;;5012950;28;20549;-70
2023/07/08 15:22:42;;;;;;;2.50;2.30;;;32.70;85.40;;;;;;5012564;28;20501;-70
2023/07/08 15:25:12;;;;;;;1.73;1.73;;;32.80;84.00;;;;;;5012507;28;20829;-70
2023/07/08 15:27:40;;;;;;;2.50;2.40;;;32.70;86.20;;;;;;5012418;28;20876;-70
2023/07/08 15:30:17;;;;;;;1.93;1.83;;;32.50;87.70;;;;;;5013438;28;20458;-70
2023/07/08 15:32:46;;;;;;;2.03;1.93;;;32.40;87.90;;;;;;5012459;28;21019;-70
2023/07/08 15:35:15;;;;;;;2.40;2.20;;;32.40;87.30;;;;;;5012766;28;20486;-71
2023/07/08 15:37:43;;;;;;;2.40;2.40;;;32.50;86.70;;;;;;5012311;28;20479;-71
2023/07/08 15:40:14;;;;;;;2.43;2.43;;;32.50;87.90;;;;;;5013052;28;20462;-70
2023/07/08 15:42:42;;;;;;;2.10;2.10;;;32.60;89.50;;;;;;5012395;28;20963;-70
2023/07/08 15:45:23;;;;;;;2.50;2.33;;;32.70;86.80;;;;;;5004096;28;20541;-71
2023/07/08 15:47:50;;;;;;;2.73;2.30;;;32.60;86.40;;;;;;5012678;28;20528;-71
2023/07/08 15:50:20;;;;;;;2.10;2.00;;;32.40;86.40;;;;;;5012658;28;20534;-71
2023/07/08 15:52:47;;;;;;;1.70;1.70;;;32.20;86.90;;;;;;5012470;28;20505;-71
2023/07/08 15:55:20;;;;;;;1.70;1.70;;;32.10;87.90;;;;;;5012114;28;21012;-71
2023/07/08 15:57:53;;;;;;;2.77;2.20;;;32.10;86.80;;;;;;5011937;28;20997;-71
2023/07/08 16:00:22;;;;;;;1.90;1.90;;;31.80;87.00;;;;;;5012573;28;20553;-71
2023/07/08 16:02:51;;;;;;;2.77;2.73;;;31.80;87.50;;;;;;5011521;28;20549;-71
2023/07/08 16:05:20;;;;;;;2.27;2.17;;;31.60;88.10;;;;;;5011520;28;20549;-71
2023/07/08 16:07:47;;;;;;;2.17;2.17;;;31.60;87.90;;;;;;5011707;28;20485;-70
2023/07/08 16:10:16;;;;;;;2.30;2.30;;;31.50;87.90;;;;;;5012006;28;20942;-71
2023/07/08 16:12:44;;;;;;;2.53;2.50;;;31.50;87.80;;;;;;5011389;28;20895;-71
2023/07/08 16:15:15;;;;;;;2.50;2.40;;;31.50;87.50;;;;;;5011571;28;20545;-71
2023/07/08 16:17:42;;;;;;;2.53;2.40;;;31.50;88.20;;;;;;5012395;28;20576;-71
2023/07/08 16:20:17;;;;;;;3.30;2.90;;;31.60;87.50;;;;;;5012405;28;20858;-71
2023/07/08 16:25:29;;;;;;;2.10;2.10;;;31.60;88.50;;;;;;5007379;28;20481;-69
2023/07/08 16:27:58;;;;;;;1.93;1.70;;;31.40;87.00;;;;;;5010166;28;20468;-69
2023/07/08 16:30:26;;;;;;;2.50;2.40;;;31.20;87.10;;;;;;5012587;28;20457;-69
2023/07/08 16:32:52;;;;;;;4.23;2.20;;;31.10;87.80;;;;;;5011173;28;20474;-70
2023/07/08 16:35:21;;;;;;;2.17;2.17;;;31.10;87.60;;;;;;4992823;28;20459;-70
2023/07/08 16:37:50;;;;;;;2.13;2.13;;;31.10;88.90;;;;;;4992005;28;20487;-69
2023/07/08 16:40:21;;;;;;;1.97;1.87;;;31.20;89.00;;;;;;4991455;28;20470;-70
2023/07/08 16:42:52;;;;;;;2.53;2.43;;;31.30;88.20;;;;;;4991543;28;20459;-70
2023/07/08 16:45:21;;;;;;;3.07;2.97;;;31.30;89.00;;;;;;4992029;28;20474;-69
2023/07/08 16:47:48;;;;;;;1.90;1.80;;;31.30;88.60;;;;;;4990509;28;20466;-70
2023/07/08 16:50:17;;;;;;;2.10;2.00;;;31.20;88.60;;;;;;4990773;28;20478;-69
2023/07/08 16:52:44;;;;;;;2.10;2.10;;;31.10;88.90;;;;;;4990323;28;20466;-69
2023/07/08 16:55:13;;;;;;;2.60;2.40;;;30.90;90.00;;;;;;4990073;28;20467;-69
2023/07/08 16:57:40;;;;;;;2.03;2.03;;;30.90;88.50;;;;;;4990209;28;20498;-70
2023/07/08 17:00:12;;;;;;;3.10;2.90;;;30.90;89.90;;;;;;4990831;28;20475;-69
2023/07/08 17:02:39;;;;;;;1.60;1.60;;;30.80;89.80;;;;;;4990252;28;20472;-70